Time;durP1;ratioP1;P1;durP2;ratioP2;P2;SDS_P1;SDS_P2;PMS_P1;PMS_P2;Temp;Humidity;BMP_temperature;BMP_pressure;BME280_temperature;BME280_humidity;BME280_pressure;Samples;Min_cycle;Max_cycle;Signal;HPM_P1;HPM_P2
2021/01/20 00:01:22;;;;;;;4.97;3.00;;;3.40;99.90;;;;;;5074718;28;20217;-69
2021/01/20 00:03:48;;;;;;;3.77;2.50;;;3.40;99.90;;;;;;5075468;28;20215;-69
2021/01/20 00:06:14;;;;;;;5.37;3.10;;;3.40;99.90;;;;;;5065376;28;20230;-67
2021/01/20 00:08:40;;;;;;;4.10;2.27;;;3.40;99.90;;;;;;5072283;28;20259;-69
2021/01/20 00:11:05;;;;;;;2.67;2.40;;;3.40;99.90;;;;;;5082818;28;20260;-67
2021/01/20 00:13:31;;;;;;;3.83;2.47;;;3.40;99.90;;;;;;5075771;27;20206;-67
2021/01/20 00:15:57;;;;;;;4.23;2.93;;;3.40;99.90;;;;;;5060626;28;20225;-68
2021/01/20 00:18:23;;;;;;;3.40;2.00;;;3.30;99.90;;;;;;5074239;28;21232;-68
2021/01/20 00:20:48;;;;;;;5.27;2.40;;;3.30;99.90;;;;;;5078022;28;20234;-67
2021/01/20 00:23:14;;;;;;;4.27;3.00;;;3.30;99.90;;;;;;5086783;28;20312;-68
2021/01/20 00:25:40;;;;;;;5.43;2.63;;;3.30;99.90;;;;;;5074255;28;20277;-67
2021/01/20 00:28:06;;;;;;;2.00;1.90;;;3.30;99.90;;;;;;5086261;28;20229;-68
2021/01/20 00:30:32;;;;;;;4.67;2.53;;;3.30;99.90;;;;;;5086625;28;20456;-67
2021/01/20 00:32:58;;;;;;;4.30;2.90;;;3.30;99.90;;;;;;5078879;28;20220;-68
2021/01/20 00:35:24;;;;;;;8.03;3.87;;;3.20;99.90;;;;;;5057695;28;20228;-67
2021/01/20 00:37:50;;;;;;;4.17;3.30;;;3.20;99.90;;;;;;5075830;28;20463;-67
2021/01/20 00:40:17;;;;;;;2.77;2.47;;;3.20;99.90;;;;;;5091969;28;20452;-67
2021/01/20 00:42:43;;;;;;;4.83;2.37;;;3.20;99.90;;;;;;5076951;28;20281;-68
2021/01/20 00:45:10;;;;;;;4.03;2.30;;;3.20;99.90;;;;;;5104115;28;20443;-67
2021/01/20 00:47:36;;;;;;;3.30;2.30;;;3.20;99.90;;;;;;5112571;28;20545;-68
2021/01/20 00:50:03;;;;;;;4.30;2.60;;;3.20;99.90;;;;;;5095711;28;20480;-69
2021/01/20 00:52:29;;;;;;;5.03;2.33;;;3.20;99.90;;;;;;5105335;28;20210;-67
2021/01/20 00:54:55;;;;;;;5.50;2.50;;;3.20;99.90;;;;;;5075789;28;20828;-68
2021/01/20 00:57:21;;;;;;;5.17;2.50;;;3.20;99.90;;;;;;5074931;28;20268;-67
2021/01/20 00:59:47;;;;;;;2.30;2.10;;;3.20;99.90;;;;;;5092144;28;20449;-68
2021/01/20 01:02:12;;;;;;;4.07;2.40;;;3.20;99.90;;;;;;5067186;28;20702;-68
2021/01/20 01:04:40;;;;;;;4.17;2.57;;;3.10;99.90;;;;;;5093766;28;20303;-68
2021/01/20 01:07:05;;;;;;;2.77;2.20;;;3.20;99.90;;;;;;5112511;28;20502;-67
2021/01/20 01:09:36;;;;;;;4.20;2.23;;;3.20;99.90;;;;;;5108062;28;20446;-67
2021/01/20 01:12:03;;;;;;;3.93;2.80;;;3.20;99.90;;;;;;5067030;28;20444;-67
2021/01/20 01:14:29;;;;;;;6.50;3.10;;;3.30;99.90;;;;;;5076325;28;20479;-68
2021/01/20 01:17:17;;;;;;;5.20;2.67;;;3.30;99.90;;;;;;5090057;28;20470;-68
2021/01/20 01:19:48;;;;;;;3.03;2.13;;;3.30;99.90;;;;;;5095167;28;20437;-68
2021/01/20 01:22:14;;;;;;;3.57;2.03;;;3.30;99.90;;;;;;5045488;28;20508;-67
2021/01/20 01:24:42;;;;;;;5.50;2.40;;;3.30;99.90;;;;;;5085820;27;20242;-67
2021/01/20 01:27:08;;;;;;;3.90;2.70;;;3.30;99.90;;;;;;5078574;28;20463;-67
2021/01/20 01:29:34;;;;;;;3.20;2.40;;;3.30;99.90;;;;;;5082350;28;20215;-67
2021/01/20 01:32:07;;;;;;;2.30;1.83;;;3.30;99.90;;;;;;5102955;28;20454;-68
2021/01/20 01:34:33;;;;;;;3.20;2.33;;;3.30;99.90;;;;;;5074103;28;20523;-69
2021/01/20 01:37:03;;;;;;;3.23;2.47;;;3.30;99.90;;;;;;5071698;28;20997;-68
2021/01/20 01:39:47;;;;;;;2.70;2.50;;;3.40;99.90;;;;;;5063887;28;20463;-69
2021/01/20 01:42:14;;;;;;;4.53;2.30;;;3.40;99.90;;;;;;5058386;28;20457;-68
2021/01/20 01:44:40;;;;;;;5.57;3.63;;;3.40;99.90;;;;;;5037170;28;20453;-68
2021/01/20 01:47:11;;;;;;;3.47;2.30;;;3.30;99.90;;;;;;5056973;28;20238;-68
2021/01/20 01:49:44;;;;;;;7.73;2.33;;;3.30;99.90;;;;;;5059136;28;20476;-69
2021/01/20 01:52:13;;;;;;;2.73;2.53;;;3.30;99.90;;;;;;5075218;28;20459;-67
2021/01/20 01:54:40;;;;;;;6.80;2.57;;;3.30;99.90;;;;;;5091125;28;20483;-67
2021/01/20 01:57:24;;;;;;;4.00;2.93;;;3.30;99.90;;;;;;5104945;27;20516;-68
2021/01/20 01:59:52;;;;;;;4.70;2.63;;;3.30;99.90;;;;;;5100027;28;20464;-68
2021/01/20 02:02:38;;;;;;;6.87;3.07;;;3.30;99.90;;;;;;5096268;27;20448;-67
2021/01/20 02:05:05;;;;;;;3.93;2.37;;;3.30;99.90;;;;;;5072400;28;20480;-69
2021/01/20 02:07:35;;;;;;;6.73;3.37;;;3.30;99.90;;;;;;5073408;27;20457;-68
2021/01/20 02:10:04;;;;;;;4.00;2.27;;;3.30;99.90;;;;;;5095058;28;20461;-67
2021/01/20 02:13:07;;;;;;;5.33;2.87;;;3.30;99.90;;;;;;5079136;27;20459;-67
2021/01/20 02:16:31;;;;;;;3.37;2.30;;;3.30;99.90;;;;;;5089040;28;20428;-69
2021/01/20 02:19:12;;;;;;;3.47;2.10;;;3.30;99.90;;;;;;5111333;27;20518;-68
2021/01/20 02:22:29;;;;;;;4.60;2.60;;;3.20;99.90;;;;;;5094181;28;20509;-67
2021/01/20 02:25:30;;;;;;;2.50;2.30;;;3.30;99.90;;;;;;5009520;28;20485;-68
2021/01/20 02:28:15;;;;;;;5.57;2.17;;;3.20;99.90;;;;;;5050301;28;20563;-68
2021/01/20 02:31:02;;;;;;;2.00;1.80;;;3.20;99.90;;;;;;5125173;27;20464;-67
2021/01/20 02:33:32;;;;;;;3.40;2.47;;;3.20;99.90;;;;;;5061122;28;21046;-67
2021/01/20 02:36:12;;;;;;;3.07;1.73;;;3.10;99.90;;;;;;5097706;27;20478;-67
2021/01/20 02:38:51;;;;;;;6.13;2.47;;;3.10;99.90;;;;;;5084391;28;20545;-67
2021/01/20 02:41:24;;;;;;;3.03;1.77;;;3.10;99.90;;;;;;5077086;28;20451;-68
2021/01/20 02:44:04;;;;;;;3.67;2.10;;;3.10;99.90;;;;;;5076218;28;20505;-67
2021/01/20 02:46:42;;;;;;;2.50;1.83;;;3.10;99.90;;;;;;5087611;28;20463;-67
2021/01/20 02:49:16;;;;;;;4.13;3.10;;;3.10;99.90;;;;;;5110900;28;20821;-68
2021/01/20 02:51:45;;;;;;;3.47;2.33;;;3.10;99.90;;;;;;5077093;28;20444;-68
2021/01/20 02:54:31;;;;;;;3.83;2.20;;;3.10;99.90;;;;;;5103322;28;20236;-67
2021/01/20 02:57:23;;;;;;;3.00;2.40;;;3.10;99.90;;;;;;5103556;27;21007;-68
2021/01/20 03:00:00;;;;;;;2.90;2.50;;;3.10;99.90;;;;;;5077671;28;20512;-67
2021/01/20 03:02:39;;;;;;;2.80;2.17;;;3.10;99.90;;;;;;5067674;28;20444;-68
2021/01/20 03:05:07;;;;;;;3.20;2.57;;;3.10;99.90;;;;;;5094180;28;20461;-67
2021/01/20 03:07:34;;;;;;;4.67;2.80;;;3.10;99.90;;;;;;5093576;28;20547;-68
2021/01/20 03:10:01;;;;;;;2.33;2.00;;;3.10;99.90;;;;;;5076869;28;20448;-68
2021/01/20 03:12:30;;;;;;;2.50;1.90;;;3.10;99.90;;;;;;5076394;28;20539;-67
2021/01/20 03:14:58;;;;;;;3.47;2.90;;;3.10;99.90;;;;;;5083241;28;20509;-67
2021/01/20 03:17:29;;;;;;;3.20;2.10;;;3.10;99.90;;;;;;5096249;27;20471;-67
2021/01/20 03:19:55;;;;;;;1.90;1.70;;;3.10;99.90;;;;;;5109388;27;20463;-68
2021/01/20 03:22:21;;;;;;;3.07;2.03;;;3.10;99.90;;;;;;5111130;27;20467;-68
2021/01/20 03:24:46;;;;;;;3.20;2.80;;;3.10;99.90;;;;;;5077248;28;20233;-67
2021/01/20 03:27:12;;;;;;;11.57;3.80;;;3.00;99.90;;;;;;5093808;28;20232;-67
2021/01/20 03:29:37;;;;;;;9.47;5.60;;;3.10;99.90;;;;;;5067434;27;20234;-67
2021/01/20 03:32:03;;;;;;;10.10;5.40;;;3.10;99.90;;;;;;5096927;28;20226;-68
2021/01/20 03:34:29;;;;;;;24.10;8.90;;;3.10;99.90;;;;;;5102647;28;20268;-68
2021/01/20 03:36:55;;;;;;;22.87;9.50;;;3.00;99.90;;;;;;5080295;28;20477;-68
2021/01/20 03:39:20;;;;;;;24.00;9.77;;;3.00;99.90;;;;;;5084325;28;20228;-67
2021/01/20 03:41:46;;;;;;;29.03;11.33;;;3.00;99.90;;;;;;5065522;28;20218;-67
2021/01/20 03:44:11;;;;;;;19.47;8.40;;;3.00;99.90;;;;;;5076581;28;20226;-68
2021/01/20 03:46:37;;;;;;;10.57;6.10;;;2.90;99.90;;;;;;5110415;28;20225;-68
2021/01/20 03:49:03;;;;;;;7.77;4.60;;;2.90;99.90;;;;;;5118537;27;20249;-67
2021/01/20 03:51:29;;;;;;;8.53;2.60;;;2.90;99.90;;;;;;5068487;28;20319;-67
2021/01/20 03:53:57;;;;;;;7.00;3.10;;;3.00;99.90;;;;;;5091126;28;20794;-68
2021/01/20 03:56:23;;;;;;;6.10;3.83;;;3.00;99.90;;;;;;5086562;28;20207;-68
2021/01/20 03:58:49;;;;;;;7.03;4.57;;;3.00;99.90;;;;;;5087360;28;20455;-67
2021/01/20 04:01:15;;;;;;;5.07;3.00;;;2.90;99.90;;;;;;5109456;28;20459;-67
2021/01/20 04:03:40;;;;;;;7.10;3.57;;;2.90;99.90;;;;;;5102788;28;20222;-67
2021/01/20 04:06:14;;;;;;;6.10;3.40;;;3.00;99.90;;;;;;5066450;28;20233;-67
2021/01/20 04:08:39;;;;;;;10.93;4.83;;;3.00;99.90;;;;;;5079604;27;20848;-68
2021/01/20 04:11:05;;;;;;;10.77;4.60;;;2.90;99.90;;;;;;5113247;27;20700;-68
2021/01/20 04:13:31;;;;;;;11.53;5.70;;;2.90;99.90;;;;;;5070188;28;20278;-68
2021/01/20 04:15:56;;;;;;;6.77;3.57;;;2.90;99.90;;;;;;5076156;28;20764;-68
2021/01/20 04:18:22;;;;;;;9.47;3.93;;;2.90;99.90;;;;;;5055679;28;20221;-67
2021/01/20 04:20:47;;;;;;;9.80;5.10;;;2.90;99.90;;;;;;5073893;28;20229;-67
2021/01/20 04:23:13;;;;;;;5.47;3.17;;;2.90;99.90;;;;;;5075916;28;20217;-67
2021/01/20 04:25:39;;;;;;;4.67;3.23;;;2.90;99.90;;;;;;5091780;28;20214;-68
2021/01/20 04:28:04;;;;;;;4.90;3.00;;;2.90;99.90;;;;;;5112841;27;20218;-67
2021/01/20 04:30:30;;;;;;;4.20;3.70;;;2.80;99.90;;;;;;5091111;28;20267;-67
2021/01/20 04:32:56;;;;;;;3.67;3.17;;;2.80;99.90;;;;;;5096425;28;20696;-68
2021/01/20 04:35:21;;;;;;;5.40;2.60;;;2.80;99.90;;;;;;5095511;28;20217;-67
2021/01/20 04:37:47;;;;;;;3.73;2.47;;;2.80;99.90;;;;;;5112000;28;20245;-67
2021/01/20 04:40:13;;;;;;;2.93;2.63;;;2.80;99.90;;;;;;5108156;28;20209;-67
2021/01/20 04:42:38;;;;;;;10.97;3.10;;;2.90;99.90;;;;;;5067388;28;20704;-67
2021/01/20 04:45:05;;;;;;;4.80;2.97;;;2.90;99.90;;;;;;5092438;28;20217;-67
2021/01/20 04:47:33;;;;;;;3.13;2.60;;;2.90;99.90;;;;;;5060395;28;20237;-67
2021/01/20 04:49:59;;;;;;;5.40;2.60;;;2.90;99.90;;;;;;5096249;28;20455;-67
2021/01/20 04:52:27;;;;;;;4.23;2.13;;;2.90;99.90;;;;;;5111214;27;20533;-67
2021/01/20 04:54:56;;;;;;;1.93;1.80;;;2.90;99.90;;;;;;5100174;27;20537;-68
2021/01/20 04:57:23;;;;;;;4.07;1.93;;;2.80;99.90;;;;;;5112459;28;20472;-68
2021/01/20 04:59:50;;;;;;;2.47;1.33;;;2.80;99.90;;;;;;5087358;28;20577;-67
2021/01/20 05:02:17;;;;;;;2.10;1.90;;;2.80;99.90;;;;;;5063338;28;21058;-67
2021/01/20 05:04:43;;;;;;;4.57;2.07;;;2.80;99.90;;;;;;5091485;28;20463;-68
2021/01/20 05:07:09;;;;;;;2.67;1.80;;;2.80;99.90;;;;;;5076366;28;20459;-68
2021/01/20 05:09:35;;;;;;;2.50;2.10;;;2.90;99.90;;;;;;5078321;28;20436;-67
2021/01/20 05:12:01;;;;;;;1.93;1.70;;;2.80;99.90;;;;;;5080125;28;20483;-68
2021/01/20 05:14:27;;;;;;;5.77;2.60;;;2.80;99.90;;;;;;5090174;27;20941;-67
2021/01/20 05:17:04;;;;;;;2.37;1.73;;;2.80;99.90;;;;;;5095736;27;20279;-68
2021/01/20 05:19:38;;;;;;;2.73;2.07;;;2.80;99.90;;;;;;5110245;27;20209;-68
2021/01/20 05:22:08;;;;;;;2.30;2.10;;;2.80;99.90;;;;;;5075144;28;20791;-67
2021/01/20 05:24:35;;;;;;;3.10;2.03;;;2.80;99.90;;;;;;5092121;28;20517;-67
2021/01/20 05:27:02;;;;;;;3.67;2.10;;;2.90;99.90;;;;;;5078129;28;20558;-68
2021/01/20 05:29:28;;;;;;;2.47;1.60;;;2.90;99.90;;;;;;5094857;28;20836;-68
2021/01/20 05:32:29;;;;;;;3.17;2.03;;;2.90;99.90;;;;;;5071050;28;21095;-70
2021/01/20 05:35:06;;;;;;;1.47;1.37;;;2.90;99.90;;;;;;5053825;28;20471;-69
2021/01/20 05:37:46;;;;;;;2.57;1.83;;;2.90;99.90;;;;;;5075152;28;20465;-71
2021/01/20 05:40:14;;;;;;;1.90;1.80;;;2.90;99.90;;;;;;5094693;28;20451;-70
2021/01/20 05:42:49;;;;;;;2.87;2.07;;;2.90;99.90;;;;;;5068496;28;20451;-71
2021/01/20 05:45:15;;;;;;;2.17;1.97;;;2.90;99.90;;;;;;5085174;27;20587;-71
2021/01/20 05:48:03;;;;;;;2.00;1.80;;;2.90;99.90;;;;;;5109042;27;20481;-70
2021/01/20 05:50:29;;;;;;;3.40;2.03;;;2.90;99.90;;;;;;5090940;28;20558;-72
2021/01/20 05:53:09;;;;;;;4.33;2.53;;;3.00;99.90;;;;;;5063227;28;20450;-69
2021/01/20 05:55:37;;;;;;;3.97;1.97;;;3.00;99.90;;;;;;5093787;28;20458;-69
2021/01/20 05:58:04;;;;;;;2.40;1.93;;;3.00;99.90;;;;;;5084151;27;20519;-69
2021/01/20 06:00:30;;;;;;;4.57;2.50;;;3.00;99.90;;;;;;5091851;28;20979;-70
2021/01/20 06:02:57;;;;;;;2.30;1.70;;;3.00;99.90;;;;;;5069047;27;20460;-70
2021/01/20 06:05:24;;;;;;;4.10;2.10;;;3.00;99.90;;;;;;5078608;28;20225;-69
2021/01/20 06:07:51;;;;;;;2.23;1.97;;;3.00;99.90;;;;;;5110842;27;20478;-70
2021/01/20 06:10:21;;;;;;;2.90;2.60;;;3.00;99.90;;;;;;5099345;28;20453;-70
2021/01/20 06:12:51;;;;;;;1.83;1.73;;;3.00;99.90;;;;;;5098891;27;20459;-70
2021/01/20 06:15:17;;;;;;;3.07;1.77;;;3.00;99.90;;;;;;5107635;27;20458;-70
2021/01/20 06:17:47;;;;;;;3.57;2.43;;;3.10;99.90;;;;;;5076421;28;20503;-70
2021/01/20 06:20:17;;;;;;;5.33;2.90;;;3.10;99.90;;;;;;5070403;28;20445;-71
2021/01/20 06:22:47;;;;;;;2.50;2.10;;;3.10;99.90;;;;;;5080349;27;20441;-69
2021/01/20 06:25:22;;;;;;;3.73;2.57;;;3.10;99.90;;;;;;5101517;28;20536;-72
2021/01/20 06:28:05;;;;;;;4.20;2.40;;;3.10;99.90;;;;;;5099608;27;20837;-70
2021/01/20 06:30:38;;;;;;;3.53;2.17;;;3.10;99.90;;;;;;5092101;27;20459;-70
2021/01/20 06:33:08;;;;;;;3.10;2.50;;;3.10;99.90;;;;;;5097611;27;20569;-69
2021/01/20 06:35:43;;;;;;;3.60;2.73;;;3.10;99.90;;;;;;5035110;28;21031;-70
2021/01/20 06:38:27;;;;;;;2.50;1.70;;;3.10;99.90;;;;;;5093148;28;20832;-71
2021/01/20 06:41:07;;;;;;;3.13;2.03;;;3.10;99.90;;;;;;5103266;28;20451;-69
2021/01/20 06:43:46;;;;;;;4.20;2.37;;;3.10;99.90;;;;;;5076102;28;20505;-70
2021/01/20 06:46:19;;;;;;;2.30;2.00;;;3.10;99.90;;;;;;5074672;28;20565;-70
2021/01/20 06:48:53;;;;;;;3.53;2.00;;;3.10;99.90;;;;;;5111863;28;20472;-71
2021/01/20 06:51:23;;;;;;;2.70;2.10;;;3.10;99.90;;;;;;5099510;28;20461;-68
2021/01/20 06:54:10;;;;;;;2.77;2.00;;;3.10;99.90;;;;;;5077131;28;20450;-68
2021/01/20 06:56:44;;;;;;;2.67;2.03;;;3.20;99.90;;;;;;5096293;28;20985;-68
2021/01/20 06:59:45;;;;;;;4.30;2.03;;;3.20;99.90;;;;;;5071117;28;20453;-70
2021/01/20 07:02:11;;;;;;;3.30;2.07;;;3.20;99.90;;;;;;5010384;28;20474;-68
2021/01/20 07:04:37;;;;;;;2.37;2.00;;;3.20;99.90;;;;;;5050613;28;20515;-69
2021/01/20 07:07:10;;;;;;;3.37;2.33;;;3.20;99.90;;;;;;5110683;28;20578;-68
2021/01/20 07:09:51;;;;;;;2.57;1.97;;;3.20;99.90;;;;;;5092149;28;20235;-71
2021/01/20 07:12:18;;;;;;;2.63;2.40;;;3.20;99.90;;;;;;5093044;28;20472;-69
2021/01/20 07:14:45;;;;;;;3.03;2.70;;;3.20;99.90;;;;;;5111747;28;20459;-69
2021/01/20 07:17:12;;;;;;;3.57;2.30;;;3.20;99.90;;;;;;5076607;28;21001;-68
2021/01/20 07:19:38;;;;;;;3.57;2.30;;;3.20;99.90;;;;;;5055136;28;20527;-68
2021/01/20 07:22:05;;;;;;;2.53;2.20;;;3.20;99.90;;;;;;5071663;28;20452;-69
2021/01/20 07:24:31;;;;;;;3.20;1.90;;;3.20;99.90;;;;;;5072296;28;20456;-69
2021/01/20 07:27:04;;;;;;;4.77;2.80;;;3.20;99.90;;;;;;5099152;28;20545;-68
2021/01/20 07:29:32;;;;;;;4.27;2.53;;;3.20;99.90;;;;;;5068756;28;20472;-69
2021/01/20 07:31:59;;;;;;;3.20;2.20;;;3.20;99.90;;;;;;5091385;27;20458;-68
2021/01/20 07:34:43;;;;;;;3.67;2.17;;;3.20;99.90;;;;;;5079060;27;20459;-69
2021/01/20 07:37:10;;;;;;;3.43;2.87;;;3.20;99.90;;;;;;5097557;27;20496;-69
2021/01/20 07:39:36;;;;;;;5.00;2.70;;;3.20;99.90;;;;;;5059023;28;20448;-68
2021/01/20 07:42:03;;;;;;;3.10;2.80;;;3.20;99.90;;;;;;5075436;28;20968;-68
2021/01/20 07:44:33;;;;;;;6.60;3.57;;;3.20;99.90;;;;;;5071645;28;20472;-68
2021/01/20 07:47:08;;;;;;;4.97;3.50;;;3.20;99.90;;;;;;5057534;28;20987;-69
2021/01/20 07:49:35;;;;;;;4.13;3.60;;;3.20;99.90;;;;;;5092375;27;20443;-68
2021/01/20 07:52:06;;;;;;;4.77;2.60;;;3.20;99.90;;;;;;5105418;28;20462;-68
2021/01/20 07:54:36;;;;;;;3.80;2.97;;;3.20;99.90;;;;;;5100958;28;20456;-68
2021/01/20 07:57:03;;;;;;;6.20;4.17;;;3.20;99.90;;;;;;5070404;28;20468;-68
2021/01/20 07:59:29;;;;;;;4.50;4.07;;;3.20;99.90;;;;;;5103638;28;20465;-68
2021/01/20 08:02:06;;;;;;;3.93;3.30;;;3.20;99.90;;;;;;5077977;28;20464;-69
2021/01/20 08:04:31;;;;;;;4.90;3.57;;;3.20;99.90;;;;;;5111174;27;20228;-70
2021/01/20 08:06:57;;;;;;;4.03;3.30;;;3.20;99.90;;;;;;5074627;28;20550;-68
2021/01/20 08:09:41;;;;;;;5.60;3.37;;;3.20;99.90;;;;;;5089869;28;20225;-68
2021/01/20 08:12:09;;;;;;;6.57;4.00;;;3.20;99.90;;;;;;5057865;27;20220;-69
2021/01/20 08:14:41;;;;;;;6.23;3.87;;;3.20;99.90;;;;;;5077163;27;20438;-68
2021/01/20 08:17:08;;;;;;;5.47;3.47;;;3.20;99.90;;;;;;5082198;28;20471;-68
2021/01/20 08:19:34;;;;;;;4.63;3.03;;;3.30;99.90;;;;;;5078802;27;20466;-68
2021/01/20 08:22:06;;;;;;;4.90;3.50;;;3.20;99.90;;;;;;5093982;27;20451;-69
2021/01/20 08:24:33;;;;;;;5.70;4.27;;;3.30;99.90;;;;;;5111038;27;20537;-68
2021/01/20 08:27:00;;;;;;;4.17;3.70;;;3.30;99.90;;;;;;5077684;28;20480;-68
2021/01/20 08:29:27;;;;;;;5.07;4.00;;;3.30;99.90;;;;;;5063324;28;20470;-68
2021/01/20 08:32:06;;;;;;;6.77;4.70;;;3.30;99.90;;;;;;5081008;28;20459;-70
2021/01/20 08:34:39;;;;;;;6.87;4.13;;;3.30;99.90;;;;;;5091841;28;20454;-68
2021/01/20 08:37:09;;;;;;;6.47;4.47;;;3.30;99.90;;;;;;5093697;28;20519;-68
2021/01/20 08:39:51;;;;;;;9.90;4.90;;;3.30;99.90;;;;;;5090790;28;20453;-69
2021/01/20 08:42:22;;;;;;;12.40;5.70;;;3.30;99.90;;;;;;5071176;28;20475;-69
2021/01/20 08:45:07;;;;;;;11.17;6.27;;;3.30;99.90;;;;;;5080280;28;20471;-68
2021/01/20 08:47:55;;;;;;;4.83;4.33;;;3.20;99.90;;;;;;5065724;28;20471;-69
2021/01/20 08:50:26;;;;;;;6.23;4.60;;;3.30;99.90;;;;;;5091143;28;20485;-68
2021/01/20 08:52:55;;;;;;;6.03;4.03;;;3.30;99.90;;;;;;5090495;28;20582;-68
2021/01/20 08:55:30;;;;;;;6.57;4.30;;;3.30;99.90;;;;;;5098775;28;20461;-68
2021/01/20 08:58:20;;;;;;;5.67;3.90;;;3.30;99.90;;;;;;5087780;28;20466;-68
2021/01/20 09:00:51;;;;;;;12.00;4.07;;;3.40;99.90;;;;;;5088297;28;20516;-68
2021/01/20 09:03:25;;;;;;;6.67;3.93;;;3.30;99.90;;;;;;5070879;28;20530;-70
2021/01/20 09:05:53;;;;;;;7.00;5.33;;;3.30;99.90;;;;;;5093922;28;20535;-68
2021/01/20 09:08:19;;;;;;;6.37;4.37;;;3.40;99.90;;;;;;5088090;28;20456;-70
2021/01/20 09:10:46;;;;;;;6.50;3.57;;;3.30;99.90;;;;;;5074795;28;20451;-68
2021/01/20 09:13:13;;;;;;;9.80;4.67;;;3.30;99.90;;;;;;5084135;28;20558;-69
2021/01/20 09:15:38;;;;;;;6.37;4.10;;;3.40;99.90;;;;;;5073277;28;20459;-69
2021/01/20 09:18:06;;;;;;;5.43;3.20;;;3.30;99.90;;;;;;5073630;28;20508;-69
2021/01/20 09:20:33;;;;;;;4.90;3.83;;;3.30;99.90;;;;;;5070240;28;20728;-69
2021/01/20 09:22:59;;;;;;;5.30;3.30;;;3.40;99.90;;;;;;5037802;28;20481;-67
2021/01/20 09:25:25;;;;;;;4.60;3.27;;;3.40;99.90;;;;;;5071168;28;20496;-68
2021/01/20 09:27:50;;;;;;;3.17;2.87;;;3.30;99.90;;;;;;5080807;28;20232;-68
2021/01/20 09:30:16;;;;;;;3.70;3.40;;;3.40;99.90;;;;;;5068703;28;20231;-68
2021/01/20 09:32:42;;;;;;;5.93;3.70;;;3.40;99.90;;;;;;5081587;28;20250;-70
2021/01/20 09:35:13;;;;;;;6.70;3.73;;;3.40;99.90;;;;;;5068661;28;20453;-68
2021/01/20 09:37:39;;;;;;;4.00;3.40;;;3.40;99.90;;;;;;5073672;28;20222;-68
2021/01/20 09:40:08;;;;;;;4.53;4.00;;;3.40;99.90;;;;;;5024463;28;20449;-69
2021/01/20 09:42:38;;;;;;;7.90;4.20;;;3.40;99.90;;;;;;5070528;28;20462;-68
2021/01/20 09:45:05;;;;;;;6.60;3.53;;;3.40;99.90;;;;;;5069486;28;20935;-68
2021/01/20 09:47:31;;;;;;;6.40;3.87;;;3.40;99.90;;;;;;5091326;28;20506;-68
2021/01/20 09:49:57;;;;;;;9.30;4.53;;;3.50;99.90;;;;;;5088868;28;20492;-70
2021/01/20 09:52:25;;;;;;;7.20;3.93;;;3.50;99.90;;;;;;5072754;28;20227;-68
2021/01/20 09:54:55;;;;;;;4.00;3.07;;;3.50;99.90;;;;;;5060060;28;20237;-70
2021/01/20 09:57:21;;;;;;;6.93;4.03;;;3.50;99.90;;;;;;5104546;28;20456;-68
2021/01/20 09:59:48;;;;;;;10.07;4.67;;;3.50;99.90;;;;;;5095912;27;20452;-69
2021/01/20 10:02:15;;;;;;;6.43;3.60;;;3.50;99.90;;;;;;5093011;28;20455;-67
2021/01/20 10:04:42;;;;;;;5.93;3.60;;;3.50;99.90;;;;;;5076981;27;20821;-68
2021/01/20 10:07:08;;;;;;;4.57;3.10;;;3.50;99.90;;;;;;5070613;28;20468;-69
2021/01/20 10:09:34;;;;;;;6.93;3.30;;;3.50;99.90;;;;;;5055772;28;20533;-68
2021/01/20 10:12:00;;;;;;;7.37;3.27;;;3.60;99.90;;;;;;5092543;27;20460;-68
2021/01/20 10:14:26;;;;;;;3.93;3.53;;;3.60;99.90;;;;;;5092299;27;20486;-69
2021/01/20 10:16:52;;;;;;;4.10;3.57;;;3.60;99.90;;;;;;5082289;28;20228;-70
2021/01/20 10:19:18;;;;;;;5.60;3.30;;;3.60;99.90;;;;;;5075973;28;20701;-69
2021/01/20 10:21:47;;;;;;;4.67;3.20;;;3.60;99.90;;;;;;5108822;28;20271;-69
2021/01/20 10:24:13;;;;;;;6.70;3.90;;;3.60;99.90;;;;;;5087015;28;20541;-69
2021/01/20 10:26:39;;;;;;;6.67;4.00;;;3.60;99.90;;;;;;5075950;28;20486;-68
2021/01/20 10:29:05;;;;;;;9.17;4.10;;;3.60;99.90;;;;;;5056574;28;20226;-68
2021/01/20 10:31:33;;;;;;;8.33;4.30;;;3.70;99.90;;;;;;5093835;28;20543;-68
2021/01/20 10:33:59;;;;;;;3.10;2.80;;;3.70;99.90;;;;;;5075822;28;20467;-69
2021/01/20 10:36:26;;;;;;;8.10;3.30;;;3.70;99.90;;;;;;5087503;28;21109;-69
2021/01/20 10:38:53;;;;;;;5.07;3.63;;;3.70;99.90;;;;;;5078899;27;20516;-68
2021/01/20 10:41:20;;;;;;;7.63;4.53;;;3.70;99.90;;;;;;5094677;27;20461;-71
2021/01/20 10:43:47;;;;;;;6.80;4.13;;;3.70;99.90;;;;;;5093525;28;20979;-68
2021/01/20 10:46:14;;;;;;;4.70;3.60;;;3.70;99.90;;;;;;5060800;27;20468;-69
2021/01/20 10:48:40;;;;;;;8.97;5.27;;;3.70;99.90;;;;;;5094603;28;20460;-68
2021/01/20 10:51:05;;;;;;;14.70;6.80;;;3.80;99.90;;;;;;5065891;28;20440;-68
2021/01/20 10:53:31;;;;;;;16.07;6.80;;;3.80;99.90;;;;;;5085743;28;20445;-68
2021/01/20 10:55:57;;;;;;;10.40;4.97;;;3.80;99.90;;;;;;5086358;28;20660;-70
2021/01/20 10:58:22;;;;;;;9.47;5.17;;;3.80;99.90;;;;;;5116319;27;20224;-69
2021/01/20 11:00:51;;;;;;;8.20;4.70;;;3.80;99.90;;;;;;5096245;27;20210;-68
2021/01/20 11:03:17;;;;;;;6.87;3.80;;;3.80;99.90;;;;;;5078354;27;20267;-68
2021/01/20 11:05:43;;;;;;;4.73;3.63;;;3.80;99.90;;;;;;5113152;27;20456;-68
2021/01/20 11:08:09;;;;;;;6.37;3.40;;;3.90;99.90;;;;;;5073491;28;20226;-68
2021/01/20 11:10:37;;;;;;;4.10;3.20;;;3.80;99.90;;;;;;5074469;28;20456;-69
2021/01/20 11:13:07;;;;;;;6.37;3.07;;;3.90;99.90;;;;;;5082134;28;20225;-68
2021/01/20 11:15:38;;;;;;;7.73;4.00;;;3.90;99.90;;;;;;5073836;28;20467;-68
2021/01/20 11:18:05;;;;;;;6.10;2.77;;;3.90;99.90;;;;;;5073505;28;20476;-70
2021/01/20 11:20:31;;;;;;;5.03;2.70;;;4.00;99.90;;;;;;5100537;27;20448;-69
2021/01/20 11:22:57;;;;;;;6.00;3.70;;;4.00;99.90;;;;;;5110286;27;20482;-67
2021/01/20 11:25:23;;;;;;;4.20;3.30;;;4.00;99.90;;;;;;5108841;27;20475;-68
2021/01/20 11:27:50;;;;;;;5.27;3.30;;;4.00;99.90;;;;;;5066525;28;20734;-68
2021/01/20 11:30:19;;;;;;;5.40;3.93;;;4.00;99.90;;;;;;5068675;28;20719;-68
2021/01/20 11:32:45;;;;;;;4.90;3.40;;;4.00;99.90;;;;;;5082534;28;20519;-68
2021/01/20 11:35:13;;;;;;;5.60;4.00;;;4.00;99.90;;;;;;5073771;28;20548;-68
2021/01/20 11:37:40;;;;;;;8.00;3.70;;;4.10;99.90;;;;;;5077177;28;20441;-68
2021/01/20 11:40:07;;;;;;;6.20;3.73;;;4.10;99.90;;;;;;5086085;28;20972;-67
2021/01/20 11:42:33;;;;;;;4.10;3.10;;;4.10;99.90;;;;;;5105458;28;20460;-69
2021/01/20 11:45:00;;;;;;;6.03;3.23;;;4.10;99.90;;;;;;5095546;28;20457;-69
2021/01/20 11:47:26;;;;;;;5.83;3.00;;;4.20;99.90;;;;;;5086304;28;20809;-69
2021/01/20 11:49:53;;;;;;;4.13;3.20;;;4.20;99.90;;;;;;5076053;27;20452;-67
2021/01/20 11:52:19;;;;;;;3.73;2.57;;;4.20;99.90;;;;;;5081629;28;20536;-70
2021/01/20 11:54:45;;;;;;;3.63;2.90;;;4.20;99.90;;;;;;5070508;28;20528;-68
2021/01/20 11:57:11;;;;;;;7.30;3.40;;;4.20;99.90;;;;;;5063208;28;20233;-69
2021/01/20 11:59:37;;;;;;;3.90;3.00;;;4.20;99.90;;;;;;5050746;28;20222;-68
2021/01/20 12:02:03;;;;;;;4.40;3.67;;;4.20;99.90;;;;;;5108220;28;20459;-68
2021/01/20 12:04:29;;;;;;;3.77;3.07;;;4.20;99.90;;;;;;5090785;28;20546;-69
2021/01/20 12:06:55;;;;;;;5.00;3.80;;;4.30;99.90;;;;;;5091301;28;20479;-68
2021/01/20 12:09:20;;;;;;;4.30;3.13;;;4.30;99.90;;;;;;5088131;28;20221;-69
2021/01/20 12:11:48;;;;;;;3.30;3.00;;;4.30;99.90;;;;;;5066120;28;20277;-69
2021/01/20 12:14:15;;;;;;;5.57;3.43;;;4.30;99.90;;;;;;5073419;28;20260;-70
2021/01/20 12:16:41;;;;;;;3.20;2.70;;;4.40;99.90;;;;;;5098902;28;20514;-69
2021/01/20 12:19:07;;;;;;;3.87;2.83;;;4.40;99.90;;;;;;5060232;28;20476;-72
2021/01/20 12:21:33;;;;;;;5.90;3.67;;;4.40;99.90;;;;;;5089460;28;20461;-71
2021/01/20 12:23:59;;;;;;;6.27;3.47;;;4.40;99.90;;;;;;5091013;28;20463;-72
2021/01/20 12:26:25;;;;;;;3.37;2.67;;;4.50;99.90;;;;;;5089584;28;20226;-70
2021/01/20 12:28:50;;;;;;;4.30;3.17;;;4.50;99.90;;;;;;5071316;28;20250;-71
2021/01/20 12:31:16;;;;;;;8.23;4.13;;;4.50;99.90;;;;;;5071878;28;20456;-71
2021/01/20 12:33:42;;;;;;;4.23;3.50;;;4.60;99.90;;;;;;5091540;28;20309;-71
2021/01/20 12:36:08;;;;;;;4.90;3.73;;;4.60;99.90;;;;;;5085239;28;20538;-72
2021/01/20 12:38:34;;;;;;;3.93;3.00;;;4.60;99.90;;;;;;5064657;28;20249;-71
2021/01/20 12:41:00;;;;;;;4.80;3.93;;;4.60;99.90;;;;;;5073601;28;20230;-72
2021/01/20 12:43:26;;;;;;;18.10;7.07;;;4.70;99.90;;;;;;5045012;28;20255;-71
2021/01/20 12:45:54;;;;;;;30.63;13.17;;;4.70;99.90;;;;;;5070751;28;20492;-72
2021/01/20 12:48:20;;;;;;;26.43;13.53;;;4.70;99.90;;;;;;5089155;28;20217;-72
2021/01/20 12:50:46;;;;;;;20.33;10.17;;;4.80;99.90;;;;;;5095697;28;20872;-72
2021/01/20 12:53:13;;;;;;;13.30;7.53;;;4.80;99.90;;;;;;5080414;28;20217;-71
2021/01/20 12:55:39;;;;;;;9.50;6.47;;;4.80;99.90;;;;;;5074056;28;20499;-71
2021/01/20 12:58:04;;;;;;;7.83;3.90;;;4.90;99.90;;;;;;5084952;28;20456;-72
2021/01/20 13:00:30;;;;;;;8.53;4.63;;;4.90;99.90;;;;;;5041378;28;20211;-72
2021/01/20 13:02:56;;;;;;;6.83;3.87;;;4.90;99.90;;;;;;5089393;28;20229;-71
2021/01/20 13:05:21;;;;;;;9.13;4.50;;;5.00;99.90;;;;;;5090429;28;20246;-72
2021/01/20 13:07:47;;;;;;;5.97;4.77;;;5.00;99.90;;;;;;5073479;28;20226;-70